South Armidale Weather

South Armidale Weather


Today's Observations
Date Time Temperature Humidity Dewpoint Wind Speed High Gust Wind Bearing Rainfall Rate Total Rainfall Pressure Gust Wind Chill Heat Index UV Index
21/10/17 11:59 11.7 98 11.4 2.5 5.4 221 0.0 0.0 1015.0 4.0 11.7 11.7 0.0
21/10/17 11:58 11.7 98 11.4 2.5 5.4 206 0.0 0.0 1015.0 4.0 11.6 11.7 0.0
21/10/17 11:57 11.6 98 11.3 2.5 5.4 197 0.0 0.0 1015.0 4.0 11.6 11.6 0.0
21/10/17 11:56 11.6 98 11.3 2.5 5.4 190 0.0 0.0 1015.0 4.0 11.7 11.6 0.0
21/10/17 11:55 11.7 98 11.4 2.5 5.8 124 0.0 0.0 1015.0 4.0 11.7 11.7 0.0
21/10/17 11:54 11.7 98 11.4 2.5 5.8 107 0.0 0.0 1015.0 4.0 11.7 11.7 0.0
21/10/17 11:53 11.7 98 11.4 2.5 6.5 109 0.0 0.0 1016.0 4.0 11.7 11.7 0.0
21/10/17 11:52 11.7 98 11.4 3.2 6.5 101 0.0 0.0 1016.0 0.0 11.6 11.7 0.0
21/10/17 11:51 11.6 98 11.3 3.2 6.5 101 0.0 0.0 1016.0 3.2 11.6 11.6 0.0
21/10/17 11:50 11.6 98 11.3 0.0 6.5 102 0.0 0.0 1016.0 1.4 11.5 11.6 0.0
21/10/17 11:49 11.5 98 11.2 1.4 6.5 107 0.0 0.0 1016.0 0.0 11.5 11.5 0.0
21/10/17 11:48 11.2 98 10.9 0.0 6.5 117 0.0 0.0 1016.0 2.5 11.2 11.2 0.0
21/10/17 11:47 11.1 98 10.8 0.0 6.5 127 0.0 0.0 1016.0 0.0 11.1 11.1 0.0
21/10/17 11:46 11.0 98 10.7 2.2 6.5 141 0.0 0.0 1016.0 5.8 10.9 11.0 0.0
21/10/17 11:45 10.9 98 10.6 2.2 6.5 157 0.0 0.0 1016.0 5.8 10.8 10.9 0.0
21/10/17 11:44 10.8 98 10.5 2.2 6.5 174 0.0 0.0 1016.0 5.8 10.8 10.8 0.0
21/10/17 11:43 10.8 98 10.5 2.2 6.5 190 0.0 0.0 1016.0 5.8 10.8 10.8 0.0
21/10/17 11:42 10.7 98 10.4 0.0 4.0 225 0.0 0.0 1016.0 0.0 10.8 10.7 0.0
21/10/17 11:41 10.8 98 10.5 0.0 4.0 225 0.0 0.0 1016.0 0.0 10.8 10.8 0.0
21/10/17 11:40 10.7 98 10.4 1.8 4.0 225 0.0 0.0 1016.0 0.0 10.7 10.7 0.0
21/10/17 11:39 10.7 98 10.4 3.6 4.0 225 0.0 0.0 1016.0 4.0 10.7 10.7 0.0
21/10/17 11:38 10.7 98 10.4 3.6 4.0 225 0.0 0.0 1016.0 4.0 10.6 10.7 0.0
21/10/17 11:37 10.6 98 10.3 3.6 4.0 225 0.0 0.0 1016.0 4.0 10.5 10.6 0.0
21/10/17 11:36 10.5 98 10.2 3.6 4.0 225 0.0 0.0 1016.0 4.0 10.5 10.5 0.0
21/10/17 11:35 10.5 98 10.2 3.6 4.0 225 0.0 0.0 1016.0 4.0 10.4 10.5 0.0
21/10/17 11:34 10.4 98 10.1 3.6 4.0 225 0.0 0.0 1016.0 4.0 10.4 10.4 0.0
21/10/17 11:33 10.3 98 10.0 3.6 4.0 225 0.0 0.0 1016.0 4.0 10.2 10.3 0.0
21/10/17 11:32 10.2 98 9.9 3.6 4.0 225 0.0 0.0 1016.0 4.0 10.2 10.2 0.0
21/10/17 11:31 10.2 98 9.9 3.6 4.0 225 0.0 0.0 1016.0 4.0 10.2 10.2 0.0
21/10/17 11:30 10.2 98 9.9 0.0 0.0 0 0.0 0.0 1016.0 0.0 0.0 10.2 0.0
21/10/17 11:29 10.2 98 9.9 0.0 0.0 0 0.0 0.0 1016.0 0.0 0.0 10.2 0.0
21/10/17 11:28 10.2 98 9.9 0.0 0.0 0 0.0 0.0 1016.0 0.0 0.0 10.2 0.0
21/10/17 11:27 10.2 98 9.9 0.0 0.0 0 0.0 0.0 1016.0 0.0 0.0 10.2 0.0
21/10/17 11:26 10.2 98 9.9 0.0 0.0 0 0.0 0.0 1016.0 0.0 0.0 10.2 0.0
21/10/17 11:25 10.1 98 9.8 0.0 0.0 0 0.0 0.0 1016.0 0.0 0.0 10.1 0.0
21/10/17 11:24 10.1 98 9.8 0.0 0.0 0 0.0 0.0 1016.0 0.0 0.0 10.1 0.0
21/10/17 11:23 10.1 98 9.8 0.0 0.0 0 0.0 0.0 1017.0 0.0 0.0 10.1 0.0
21/10/17 11:22 10.2 98 9.9 0.0 0.0 0 0.0 0.0 1017.0 0.0 0.0 10.2 0.0
21/10/17 11:21 10.2 98 9.9 0.0 0.0 0 0.0 0.0 1017.0 0.0 0.0 10.2 0.0
21/10/17 11:20 10.2 98 9.9 0.0 0.0 0 0.0 0.0 1017.0 0.0 0.0 10.2 0.0
21/10/17 11:19 10.2 98 9.9 0.0 0.0 0 0.0 0.0 1017.0 0.0 0.0 10.2 0.0
21/10/17 11:18 10.2 98 9.9 0.0 0.0 0 0.0 0.0 1017.0 0.0 0.0 10.2 0.0
21/10/17 11:17 10.1 98 9.8 0.0 0.0 0 0.0 0.0 1017.0 0.0 0.0 10.1 0.0
21/10/17 11:16 10.1 98 9.8 0.0 0.0 0 0.0 0.0 1017.0 0.0 0.0 10.1 0.0
21/10/17 11:15 10.1 98 9.8 0.0 0.0 0 0.0 0.0 1017.0 0.0 0.0 10.1 0.0
21/10/17 11:14 10.1 98 9.8 0.0 0.0 0 0.0 0.0 1017.0 0.0 0.0 10.1 0.0
21/10/17 11:13 10.2 98 9.9 0.0 0.0 0 0.0 0.0 1017.0 0.0 0.0 10.2 0.0
21/10/17 11:12 10.2 98 9.9 0.0 0.0 0 0.0 0.0 1017.0 0.0 0.0 10.2 0.0
21/10/17 11:11 10.2 98 9.9 0.0 0.0 0 0.0 0.0 1017.0 0.0 0.0 10.2 0.0
21/10/17 11:10 10.2 98 9.9 0.0 0.0 0 0.0 0.0 1017.0 0.0 0.0 10.2 0.0
21/10/17 11:09 10.3 98 10.0 0.0 0.0 0 0.0 0.0 1017.0 0.0 0.0 10.3 0.0
21/10/17 11:08 10.3 98 10.0 0.0 0.0 0 0.0 0.0 1016.0 0.0 0.0 10.3 0.0
21/10/17 11:07 10.3 98 10.0 0.0 0.0 0 0.0 0.0 1016.0 0.0 0.0 10.3 0.0
21/10/17 11:06 10.3 98 10.0 0.0 0.0 0 0.0 0.0 1016.0 0.0 0.0 10.3 0.0
21/10/17 11:05 10.3 98 10.0 0.0 0.0 0 0.0 0.0 1016.0 0.0 0.0 10.3 0.0
21/10/17 11:04 10.2 98 9.9 0.0 0.0 0 0.0 0.0 1016.0 0.0 0.0 10.2 0.0
21/10/17 11:03 10.2 98 9.9 0.0 0.0 0 0.0 0.0 1016.0 0.0 0.0 10.2 0.0
21/10/17 10:52 10.3 98 10.0 5.8 6.1 90 0.0 0.0 1016.0 6.1 9.8 10.3 0.0
21/10/17 10:51 10.3 98 10.0 5.8 6.1 90 0.0 0.0 1016.0 6.1 9.8 10.3 0.0
21/10/17 10:50 10.2 98 9.9 5.8 6.1 90 0.0 0.0 1016.0 6.1 9.8 10.2 0.0
21/10/17 10:49 10.2 98 9.9 5.8 6.1 90 0.0 0.0 1016.0 6.1 9.8 10.2 0.0
21/10/17 10:48 10.2 98 9.9 5.8 6.1 90 0.0 0.0 1016.0 6.1 9.8 10.2 0.0
21/10/17 10:47 10.2 98 9.9 5.8 6.1 90 0.0 0.0 1016.0 6.1 9.8 10.2 0.0
21/10/17 10:46 10.1 98 9.8 5.8 6.1 90 0.0 0.0 1016.0 6.1 9.8 10.1 0.0
21/10/17 10:45 10.1 98 9.8 5.8 6.1 90 0.0 0.0 1016.0 6.1 9.8 10.1 0.0
21/10/17 10:44 10.1 98 9.8 5.8 6.1 90 0.0 0.0 1016.0 6.1 9.8 10.1 0.0
21/10/17 10:43 10.2 98 9.9 5.8 6.1 90 0.0 0.0 1016.0 6.1 9.8 10.2 0.0
21/10/17 10:42 10.2 98 9.9 5.8 6.1 90 0.0 0.0 1016.0 6.1 9.8 10.2 0.0
21/10/17 10:41 10.1 98 9.8 5.8 6.1 90 0.0 0.0 1016.0 6.1 9.8 10.1 0.0
21/10/17 10:40 10.1 98 9.8 5.8 6.1 90 0.0 0.0 1016.0 6.1 9.8 10.1 0.0
21/10/17 10:39 10.1 98 9.8 5.8 6.1 90 0.0 0.0 1016.0 6.1 9.8 10.1 0.0
21/10/17 10:38 10.1 98 9.8 5.8 6.1 90 0.0 0.0 1016.0 6.1 9.8 10.1 0.0
21/10/17 10:37 10.1 98 9.8 5.8 6.1 90 0.0 0.0 1016.0 6.1 9.8 10.1 0.0
21/10/17 10:36 10.1 98 9.8 5.8 6.1 90 0.0 0.0 1016.0 6.1 9.8 10.1 0.0
21/10/17 10:35 10.1 98 9.8 5.8 6.1 90 0.0 0.0 1016.0 6.1 9.8 10.1 0.0
21/10/17 10:34 10.0 98 9.7 5.8 6.1 90 0.0 0.0 1016.0 6.1 9.8 10.0 0.0
21/10/17 10:33 10.0 98 9.7 5.8 6.1 90 0.0 0.0 1016.0 6.1 9.8 10.0 0.0
21/10/17 10:32 10.1 98 9.8 5.8 6.1 90 0.0 0.0 1016.0 6.1 9.8 10.1 0.0
21/10/17 10:31 10.2 98 9.9 5.8 6.1 90 0.0 0.0 1016.0 6.1 9.8 10.2 0.0
21/10/17 10:30 10.2 98 9.9 5.8 6.1 90 0.0 0.0 1016.0 6.1 9.8 10.2 0.0
21/10/17 10:29 10.2 98 9.9 5.8 6.1 90 0.0 0.0 1016.0 6.1 9.8 10.2 0.0
21/10/17 10:28 10.2 98 9.9 5.8 6.1 90 0.0 0.0 1016.0 6.1 9.8 10.2 0.0
21/10/17 10:27 10.2 98 9.9 5.8 6.1 90 0.0 0.0 1016.0 6.1 9.8 10.2 0.0
21/10/17 10:26 10.1 98 9.8 5.8 6.1 90 0.0 0.0 1016.0 6.1 9.8 10.1 0.0
21/10/17 10:25 10.1 98 9.8 5.8 6.1 90 0.0 0.0 1016.0 6.1 9.8 10.1 0.0
21/10/17 10:24 10.1 98 9.8 5.8 6.1 90 0.0 0.0 1016.0 6.1 9.8 10.1 0.0
21/10/17 10:23 10.1 98 9.8 5.8 6.1 90 0.0 0.0 1015.0 6.1 9.8 10.1 0.0
21/10/17 10:22 10.2 98 9.9 5.8 6.1 90 0.0 0.0 1015.0 6.1 9.8 10.2 0.0
21/10/17 10:21 10.2 98 9.9 5.8 6.1 90 0.0 0.0 1015.0 6.1 9.8 10.2 0.0
21/10/17 10:20 10.2 98 9.9 5.8 6.1 90 0.0 0.0 1015.0 6.1 9.8 10.2 0.0
21/10/17 10:19 10.2 98 9.9 5.8 6.1 90 0.0 0.0 1015.0 6.1 9.8 10.2 0.0
21/10/17 10:18 10.2 98 9.9 5.8 6.1 90 0.0 0.0 1015.0 6.1 9.8 10.2 0.0
21/10/17 10:17 10.2 98 9.9 5.8 6.1 90 0.0 0.0 1015.0 6.1 9.7 10.2 0.0
21/10/17 10:16 10.1 98 9.8 5.8 6.1 90 0.0 0.0 1015.0 6.1 9.7 10.1 0.0
21/10/17 10:15 10.1 98 9.8 5.8 6.1 90 0.0 0.0 1015.0 6.1 9.7 10.1 0.0
21/10/17 10:14 10.1 98 9.8 5.8 6.1 90 0.0 0.0 1015.0 6.1 9.7 10.1 0.0
21/10/17 10:13 10.1 98 9.8 5.8 6.1 90 0.0 0.0 1015.0 6.1 9.5 10.1 0.0
21/10/17 10:12 10.0 98 9.7 5.8 6.1 90 0.0 0.0 1015.0 6.1 9.5 10.0 0.0
21/10/17 10:11 10.0 98 9.7 5.8 6.1 90 0.0 0.0 1015.0 6.1 9.5 10.0 0.0
21/10/17 10:10 10.0 98 9.7 5.8 6.1 90 0.0 0.0 1015.0 6.1 9.5 10.0 0.0
21/10/17 10:09 10.1 98 9.8 5.8 6.1 90 0.0 0.0 1015.0 6.1 9.7 10.1 0.0
21/10/17 10:08 10.1 98 9.8 5.8 6.1 90 0.0 0.0 1015.0 6.1 9.8 10.1 0.0
21/10/17 10:07 10.2 98 9.9 5.8 6.1 90 0.0 0.0 1015.0 6.1 9.7 10.2 0.0
21/10/17 10:06 10.1 98 9.8 5.8 6.1 90 0.0 0.0 1015.0 6.1 9.7 10.1 0.0
21/10/17 10:05 10.1 98 9.8 5.8 6.1 90 0.0 0.0 1015.0 6.1 9.5 10.1 0.0
21/10/17 10:04 10.0 98 9.7 5.8 6.1 90 0.0 0.0 1015.0 6.1 9.5 10.0 0.0
21/10/17 10:03 10.0 98 9.7 0.0 0.0 0 0.0 0.0 1015.0 0.0 0.0 10.0 0.0
21/10/17 09:59 10.0 98 9.7 0.0 0.0 0 0.0 0.0 1015.0 0.0 0.0 10.0 0.0
21/10/17 09:58 10.0 98 9.7 0.0 0.0 0 0.0 0.0 1015.0 0.0 0.0 10.0 0.0
21/10/17 09:57 10.0 98 9.7 0.0 0.0 0 0.0 0.0 1015.0 0.0 0.0 10.0 0.0
21/10/17 09:56 10.0 98 9.7 0.0 0.0 0 0.0 0.0 1015.0 0.0 0.0 10.0 0.0
21/10/17 09:55 9.9 98 9.6 0.0 0.0 0 0.0 0.0 1015.0 0.0 0.0 9.9 0.0
21/10/17 09:54 9.9 98 9.6 0.0 0.0 0 0.0 0.0 1015.0 0.0 0.0 9.9 0.0
21/10/17 09:53 9.8 98 9.5 0.0 0.0 0 0.0 0.0 1015.0 0.0 0.0 9.8 0.0
21/10/17 09:52 9.8 98 9.5 0.0 0.0 0 0.0 0.0 1015.0 0.0 0.0 9.8 0.0
21/10/17 09:51 9.8 98 9.5 0.0 0.0 0 0.0 0.0 1015.0 0.0 0.0 9.8 0.0
21/10/17 09:50 9.8 98 9.5 0.0 0.0 0 0.0 0.0 1015.0 0.0 0.0 9.8 0.0
21/10/17 09:49 9.8 98 9.5 0.0 0.0 0 0.0 0.0 1015.0 0.0 0.0 9.8 0.0
21/10/17 09:48 9.8 98 9.5 0.0 0.0 0 0.0 0.0 1015.0 0.0 0.0 9.8 0.0
21/10/17 09:47 9.8 98 9.5 0.0 0.0 0 0.0 0.0 1015.0 0.0 0.0 9.8 0.0
21/10/17 09:46 9.7 98 9.4 0.0 0.0 0 0.0 0.0 1015.0 0.0 0.0 9.7 0.0
21/10/17 09:45 9.8 98 9.5 0.0 0.0 0 0.0 0.0 1015.0 0.0 0.0 9.8 0.0
21/10/17 09:44 9.7 98 9.4 0.0 0.0 0 0.0 0.0 1015.0 0.0 0.0 9.7 0.0
21/10/17 09:43 9.7 98 9.4 0.0 0.0 0 0.0 0.0 1015.0 0.0 0.0 9.7 0.0
21/10/17 09:42 9.7 98 9.4 0.0 0.0 0 0.0 0.0 1015.0 0.0 0.0 9.7 0.0
21/10/17 09:41 9.7 98 9.4 0.0 0.0 0 0.0 0.0 1015.0 0.0 0.0 9.7 0.0
21/10/17 09:40 9.7 98 9.4 0.0 0.0 0 0.0 0.0 1015.0 0.0 0.0 9.7 0.0
21/10/17 09:39 9.7 98 9.4 0.0 0.0 0 0.0 0.0 1015.0 0.0 0.0 9.7 0.0
21/10/17 09:38 9.7 98 9.4 0.0 0.0 0 0.0 0.0 1016.0 0.0 0.0 9.7 0.0
21/10/17 09:37 9.7 98 9.4 0.0 0.0 0 0.0 0.0 1016.0 0.0 0.0 9.7 0.0
21/10/17 09:36 9.6 98 9.3 0.0 0.0 0 0.0 0.0 1016.0 0.0 0.0 9.6 0.0
21/10/17 09:35 9.6 98 9.3 0.0 0.0 0 0.0 0.0 1016.0 0.0 0.0 9.6 0.0
21/10/17 09:34 9.6 98 9.3 0.0 0.0 0 0.0 0.0 1016.0 0.0 0.0 9.6 0.0
21/10/17 09:33 9.6 98 9.3 0.0 0.0 0 0.0 0.0 1016.0 0.0 0.0 9.6 0.0
21/10/17 09:32 9.5 98 9.2 0.0 0.0 0 0.0 0.0 1016.0 0.0 0.0 9.5 0.0
21/10/17 09:31 9.5 98 9.2 0.0 0.0 0 0.0 0.0 1016.0 0.0 0.0 9.5 0.0
21/10/17 09:30 9.6 98 9.3 0.0 0.0 0 0.0 0.0 1016.0 0.0 0.0 9.6 0.0
21/10/17 09:29 9.6 98 9.3 0.0 0.0 0 0.0 0.0 1016.0 0.0 0.0 9.6 0.0
21/10/17 09:28 9.6 98 9.3 0.0 0.0 0 0.0 0.0 1016.0 0.0 0.0 9.6 0.0
21/10/17 09:27 9.6 98 9.3 0.0 0.0 0 0.0 0.0 1016.0 0.0 0.0 9.6 0.0
21/10/17 09:26 9.6 98 9.3 0.0 0.0 0 0.0 0.0 1016.0 0.0 0.0 9.6 0.0
21/10/17 09:25 9.6 98 9.3 0.0 0.0 0 0.0 0.0 1016.0 0.0 0.0 9.6 0.0
21/10/17 09:24 9.7 98 9.4 0.0 0.0 0 0.0 0.0 1016.0 0.0 0.0 9.7 0.0
21/10/17 09:23 9.7 98 9.4 0.0 0.0 0 0.0 0.0 1016.0 0.0 0.0 9.7 0.0
21/10/17 09:22 9.7 98 9.4 0.0 0.0 0 0.0 0.0 1016.0 0.0 0.0 9.7 0.0
21/10/17 09:21 9.7 98 9.4 0.0 0.0 0 0.0 0.0 1016.0 0.0 0.0 9.7 0.0
21/10/17 09:20 9.7 98 9.4 0.0 0.0 0 0.0 0.0 1016.0 0.0 0.0 9.7 0.0
21/10/17 09:19 9.7 98 9.4 0.0 0.0 0 0.0 0.0 1016.0 0.0 0.0 9.7 0.0
21/10/17 09:18 9.7 98 9.4 0.0 0.0 0 0.0 0.0 1016.0 0.0 0.0 9.7 0.0
21/10/17 09:17 9.7 98 9.4 0.0 0.0 0 0.0 0.0 1016.0 0.0 0.0 9.7 0.0
21/10/17 09:16 9.7 98 9.4 0.0 0.0 0 0.0 0.0 1016.0 0.0 0.0 9.7 0.0
21/10/17 09:15 9.7 98 9.4 0.0 0.0 0 0.0 0.0 1016.0 0.0 0.0 9.7 0.0
21/10/17 09:14 9.7 98 9.4 0.0 0.0 0 0.0 0.0 1016.0 0.0 0.0 9.7 0.0
21/10/17 09:13 9.7 98 9.4 0.0 0.0 0 0.0 0.0 1016.0 0.0 0.0 9.7 0.0
21/10/17 09:12 9.8 98 9.5 0.0 0.0 0 0.0 0.0 1016.0 0.0 0.0 9.8 0.0
21/10/17 09:11 9.8 98 9.5 0.0 0.0 0 0.0 0.0 1016.0 0.0 0.0 9.8 0.0
21/10/17 09:10 9.8 98 9.5 0.0 0.0 0 0.0 0.0 1016.0 0.0 0.0 9.8 0.0
21/10/17 09:09 9.8 98 9.5 0.0 0.0 0 0.0 0.0 1016.0 0.0 0.0 9.8 0.0
21/10/17 09:08 9.8 98 9.5 0.0 0.0 0 0.0 0.0 1016.0 0.0 0.0 9.8 0.0
21/10/17 09:07 9.8 98 9.5 0.0 0.0 0 0.0 0.0 1016.0 0.0 0.0 9.8 0.0
21/10/17 09:06 9.9 98 9.6 0.0 0.0 0 0.0 0.0 1016.0 0.0 0.0 9.9 0.0
21/10/17 09:05 9.9 98 9.6 0.0 0.0 0 0.0 0.0 1016.0 0.0 0.0 9.9 0.0
21/10/17 09:04 9.9 98 9.6 0.0 0.0 0 0.0 0.0 1016.0 0.0 0.0 9.9 0.0
21/10/17 09:03 9.9 98 9.6 0.0 0.0 0 0.0 0.0 1016.0 0.0 0.0 9.9 0.0
21/10/17 09:02 9.9 98 9.6 0.0 0.0 0 0.0 0.0 1016.0 0.0 0.0 9.9 0.0
21/10/17 08:59 9.9 98 9.6 0.0 1.8 90 0.0 0.0 1016.0 1.8 9.9 9.9 0.0
21/10/17 08:58 9.9 98 9.6 0.0 1.8 90 0.0 0.0 1016.0 1.8 9.9 9.9 0.0
21/10/17 08:57 9.9 98 9.6 0.0 1.8 90 0.0 0.0 1016.0 1.8 9.9 9.9 0.0
21/10/17 08:56 9.9 98 9.6 0.0 1.8 90 0.0 0.0 1016.0 1.8 9.9 9.9 0.0
21/10/17 08:55 9.9 98 9.6 0.0 1.8 90 0.0 0.0 1016.0 1.8 9.9 9.9 0.0
21/10/17 08:54 9.9 98 9.6 0.0 1.8 90 0.0 0.0 1016.0 1.8 9.9 9.9 0.0
21/10/17 08:53 9.9 98 9.6 0.0 1.8 90 0.0 0.0 1016.0 1.8 9.9 9.9 0.0
21/10/17 08:52 9.9 98 9.6 0.0 1.8 90 0.0 0.0 1016.0 1.8 9.9 9.9 0.0
21/10/17 08:51 9.9 98 9.6 0.0 1.8 90 0.0 0.0 1016.0 1.8 9.9 9.9 0.0
21/10/17 08:50 9.9 98 9.6 0.0 1.8 90 0.0 0.0 1016.0 1.8 9.9 9.9 0.0
21/10/17 08:49 9.9 98 9.6 0.0 1.8 90 0.0 0.0 1016.0 1.8 9.9 9.9 0.0
21/10/17 08:48 9.9 98 9.6 0.0 1.8 90 0.0 0.0 1016.0 1.8 9.9 9.9 0.0
21/10/17 08:47 9.9 98 9.6 0.0 1.8 90 0.0 0.0 1016.0 1.8 9.9 9.9 0.0
21/10/17 08:46 9.9 98 9.6 0.0 1.8 90 0.0 0.0 1016.0 1.8 10.0 9.9 0.0
21/10/17 08:45 10.0 98 9.7 0.0 1.8 90 0.0 0.0 1016.0 1.8 10.0 10.0 0.0
21/10/17 08:44 10.0 98 9.7 0.0 1.8 90 0.0 0.0 1016.0 1.8 10.0 10.0 0.0
21/10/17 08:43 10.0 98 9.7 0.0 1.8 90 0.0 0.0 1016.0 1.8 10.0 10.0 0.0
21/10/17 08:42 10.0 98 9.7 0.0 1.8 90 0.0 0.0 1016.0 1.8 10.0 10.0 0.0
21/10/17 08:41 10.0 98 9.7 0.0 1.8 90 0.0 0.0 1016.0 1.8 10.0 10.0 0.0
21/10/17 08:40 10.0 98 9.7 0.0 1.8 90 0.0 0.0 1016.0 1.8 10.0 10.0 0.0
21/10/17 08:39 10.0 98 9.7 0.0 1.8 90 0.0 0.0 1016.0 1.8 10.1 10.0 0.0
21/10/17 08:38 10.1 98 9.8 0.0 1.8 90 0.0 0.0 1016.0 1.8 10.1 10.1 0.0
21/10/17 08:37 10.1 98 9.8 0.0 1.8 90 0.0 0.0 1016.0 1.8 10.1 10.1 0.0
21/10/17 08:36 10.1 98 9.8 0.0 1.8 90 0.0 0.0 1016.0 1.8 10.1 10.1 0.0
21/10/17 08:35 10.1 98 9.8 0.0 1.8 90 0.0 0.0 1016.0 1.8 10.1 10.1 0.0
21/10/17 08:34 10.1 98 9.8 0.0 0.0 0 0.0 0.0 1016.0 0.0 0.0 10.1 0.0
21/10/17 08:33 10.1 98 9.8 0.0 0.0 0 0.0 0.0 1016.0 0.0 0.0 10.1 0.0
21/10/17 08:32 10.1 98 9.8 0.0 0.0 0 0.0 0.0 1016.0 0.0 0.0 10.1 0.0
21/10/17 08:31 10.2 98 9.9 0.0 0.0 0 0.0 0.0 1016.0 0.0 0.0 10.2 0.0
21/10/17 08:30 10.2 98 9.9 0.0 0.0 0 0.0 0.0 1016.0 0.0 0.0 10.2 0.0
21/10/17 08:29 10.2 98 9.9 0.0 0.0 0 0.0 0.0 1016.0 0.0 0.0 10.2 0.0
21/10/17 08:28 10.2 98 9.9 0.0 0.0 0 0.0 0.0 1016.0 0.0 0.0 10.2 0.0
21/10/17 08:27 10.3 98 10.0 0.0 0.0 0 0.0 0.0 1016.0 0.0 0.0 10.3 0.0
21/10/17 08:26 10.3 98 10.0 0.0 0.0 0 0.0 0.0 1016.0 0.0 0.0 10.3 0.0
21/10/17 08:25 10.3 98 10.0 0.0 0.0 0 0.0 0.0 1016.0 0.0 0.0 10.3 0.0
21/10/17 08:24 10.3 98 10.0 0.0 0.0 0 0.0 0.0 1016.0 0.0 0.0 10.3 0.0
21/10/17 08:23 10.3 98 10.0 0.0 0.0 0 0.0 0.0 1016.0 0.0 0.0 10.3 0.0
21/10/17 08:22 10.3 98 10.0 0.0 0.0 0 0.0 0.0 1016.0 0.0 0.0 10.3 0.0
21/10/17 08:21 10.3 98 10.0 0.0 0.0 0 0.0 0.0 1016.0 0.0 0.0 10.3 0.0
21/10/17 08:20 10.3 98 10.0 0.0 0.0 0 0.0 0.0 1016.0 0.0 0.0 10.3 0.0
21/10/17 08:19 10.3 98 10.0 0.0 0.0 0 0.0 0.0 1016.0 0.0 0.0 10.3 0.0
21/10/17 08:18 10.3 98 10.0 0.0 0.0 0 0.0 0.0 1016.0 0.0 0.0 10.3 0.0
21/10/17 08:17 10.3 98 10.0 0.0 0.0 0 0.0 0.0 1016.0 0.0 0.0 10.3 0.0
21/10/17 08:16 10.4 98 10.1 0.0 0.0 0 0.0 0.0 1016.0 0.0 0.0 10.4 0.0
21/10/17 08:15 10.4 98 10.1 0.0 0.0 0 0.0 0.0 1016.0 0.0 0.0 10.4 0.0
21/10/17 08:14 10.4 98 10.1 0.0 0.0 0 0.0 0.0 1016.0 0.0 0.0 10.4 0.0
21/10/17 08:13 10.4 98 10.1 0.0 0.0 0 0.0 0.0 1016.0 0.0 0.0 10.4 0.0
21/10/17 08:12 10.4 98 10.1 0.0 0.0 0 0.0 0.0 1016.0 0.0 0.0 10.4 0.0
21/10/17 08:11 10.5 98 10.2 0.0 0.0 0 0.0 0.0 1016.0 0.0 0.0 10.5 0.0
21/10/17 08:10 10.5 98 10.2 0.0 0.0 0 0.0 0.0 1016.0 0.0 0.0 10.5 0.0
21/10/17 08:09 10.5 98 10.2 0.0 0.0 0 0.0 0.0 1016.0 0.0 0.0 10.5 0.0
21/10/17 08:08 10.4 98 10.1 0.0 0.0 0 0.0 0.0 1017.0 0.0 0.0 10.4 0.0
21/10/17 08:07 10.4 98 10.1 0.0 0.0 0 0.0 0.0 1017.0 0.0 0.0 10.4 0.0
21/10/17 08:06 10.4 98 10.1 0.0 0.0 0 0.0 0.0 1017.0 0.0 0.0 10.4 0.0
21/10/17 08:05 10.3 98 10.0 0.0 0.0 0 0.0 0.0 1017.0 0.0 0.0 10.3 0.0
21/10/17 08:04 10.3 98 10.0 0.0 0.0 0 0.0 0.0 1017.0 0.0 0.0 10.3 0.0
21/10/17 08:03 10.3 98 10.0 0.0 0.0 0 0.0 0.0 1017.0 0.0 0.0 10.3 0.0
21/10/17 08:02 10.3 98 10.0 0.0 0.0 0 0.0 0.0 1017.0 0.0 0.0 10.3 0.0
21/10/17 08:00 10.2 98 9.9 0.0 0.0 0 0.0 0.0 1017.0 0.0 0.0 10.2 0.0
21/10/17 07:59 10.2 98 9.9 0.0 0.0 0 0.0 0.0 1017.0 0.0 0.0 10.2 0.0
21/10/17 07:58 10.1 98 9.8 0.0 0.0 0 0.0 0.0 1017.0 0.0 0.0 10.1 0.0
21/10/17 07:57 10.1 98 9.8 0.0 0.0 0 0.0 0.0 1017.0 0.0 0.0 10.1 0.0
21/10/17 07:56 10.1 98 9.8 0.0 0.0 0 0.0 0.0 1017.0 0.0 0.0 10.1 0.0
21/10/17 07:55 10.1 98 9.8 0.0 0.0 0 0.0 0.0 1017.0 0.0 0.0 10.1 0.0
21/10/17 07:54 10.1 98 9.8 0.0 0.0 0 0.0 0.0 1017.0 0.0 0.0 10.1 0.0
21/10/17 07:53 10.1 98 9.8 0.0 0.0 0 0.0 0.0 1017.0 0.0 0.0 10.1 0.0
21/10/17 07:52 10.1 98 9.8 0.0 0.0 0 0.0 0.0 1017.0 0.0 0.0 10.1 0.0
21/10/17 07:51 10.1 98 9.8 0.0 0.0 0 0.0 0.0 1017.0 0.0 0.0 10.1 0.0
21/10/17 07:50 10.1 98 9.8 0.0 0.0 0 0.0 0.0 1017.0 0.0 0.0 10.1 0.0
21/10/17 07:49 10.1 98 9.8 0.0 0.0 0 0.0 0.0 1017.0 0.0 0.0 10.1 0.0
21/10/17 07:48 10.1 98 9.8 0.0 0.0 0 0.0 0.0 1017.0 0.0 0.0 10.1 0.0
21/10/17 07:47 10.1 98 9.8 0.0 0.0 0 0.0 0.0 1017.0 0.0 0.0 10.1 0.0
21/10/17 07:46 10.1 98 9.8 0.0 0.0 0 0.0 0.0 1017.0 0.0 0.0 10.1 0.0
21/10/17 07:45 10.1 98 9.8 0.0 0.0 0 0.0 0.0 1017.0 0.0 0.0 10.1 0.0
21/10/17 07:44 10.1 98 9.8 0.0 0.0 0 0.0 0.0 1017.0 0.0 0.0 10.1 0.0
21/10/17 07:43 10.1 98 9.8 0.0 0.0 0 0.0 0.0 1017.0 0.0 0.0 10.1 0.0
21/10/17 07:42 10.1 98 9.8 0.0 0.0 0 0.0 0.0 1017.0 0.0 0.0 10.1 0.0
21/10/17 07:41 10.1 98 9.8 0.0 0.0 0 0.0 0.0 1017.0 0.0 0.0 10.1 0.0
21/10/17 07:40 10.1 98 9.8 0.0 0.0 0 0.0 0.0 1017.0 0.0 0.0 10.1 0.0
21/10/17 07:39 10.1 98 9.8 0.0 0.0 0 0.0 0.0 1017.0 0.0 0.0 10.1 0.0
21/10/17 07:38 10.1 98 9.8 0.0 0.0 0 0.0 0.0 1017.0 0.0 0.0 10.1 0.0
21/10/17 07:37 10.1 98 9.8 0.0 0.0 0 0.0 0.0 1017.0 0.0 0.0 10.1 0.0
21/10/17 07:36 10.0 98 9.7 0.0 0.0 0 0.0 0.0 1017.0 0.0 0.0 10.0 0.0
21/10/17 07:35 10.0 98 9.7 0.0 0.0 0 0.0 0.0 1017.0 0.0 0.0 10.0 0.0
21/10/17 07:34 10.0 98 9.7 0.0 0.0 0 0.0 0.0 1017.0 0.0 0.0 10.0 0.0
21/10/17 07:33 10.0 98 9.7 0.0 0.0 0 0.0 0.0 1017.0 0.0 0.0 10.0 0.0
21/10/17 07:32 9.9 98 9.6 0.0 0.0 0 0.0 0.0 1017.0 0.0 0.0 9.9 0.0
21/10/17 07:31 9.9 98 9.6 0.0 0.0 0 0.0 0.0 1017.0 0.0 0.0 9.9 0.0
21/10/17 07:30 9.9 98 9.6 0.0 0.0 0 0.0 0.0 1017.0 0.0 0.0 9.9 0.0
21/10/17 07:29 9.9 98 9.6 0.0 0.0 0 0.0 0.0 1017.0 0.0 0.0 9.9 0.0
21/10/17 07:28 9.9 98 9.6 0.0 0.0 0 0.0 0.0 1017.0 0.0 0.0 9.9 0.0
21/10/17 07:27 9.9 98 9.6 0.0 0.0 0 0.0 0.0 1017.0 0.0 0.0 9.9 0.0
21/10/17 07:26 9.9 98 9.6 0.0 0.0 0 0.0 0.0 1017.0 0.0 0.0 9.9 0.0
21/10/17 07:25 9.9 98 9.6 0.0 0.0 0 0.0 0.0 1017.0 0.0 0.0 9.9 0.0
21/10/17 07:24 9.9 98 9.6 0.0 0.0 0 0.0 0.0 1017.0 0.0 0.0 9.9 0.0
21/10/17 07:23 9.9 98 9.6 0.0 0.0 0 0.0 0.0 1017.0 0.0 0.0 9.9 0.0
21/10/17 07:22 9.8 98 9.5 0.0 0.0 0 0.0 0.0 1017.0 0.0 0.0 9.8 0.0
21/10/17 07:21 9.8 98 9.5 0.0 0.0 0 0.0 0.0 1017.0 0.0 0.0 9.8 0.0
21/10/17 07:20 9.8 98 9.5 0.0 0.0 0 0.0 0.0 1017.0 0.0 0.0 9.8 0.0
21/10/17 07:19 9.8 98 9.5 0.0 0.0 0 0.0 0.0 1017.0 0.0 0.0 9.8 0.0
21/10/17 07:18 9.8 98 9.5 0.0 0.0 0 0.0 0.0 1017.0 0.0 0.0 9.8 0.0
21/10/17 07:17 9.8 98 9.5 0.0 0.0 0 0.0 0.0 1017.0 0.0 0.0 9.8 0.0
21/10/17 07:16 9.8 98 9.5 0.0 0.0 0 0.0 0.0 1017.0 0.0 0.0 9.8 0.0
21/10/17 07:15 9.8 98 9.5 0.0 0.0 0 0.0 0.0 1017.0 0.0 0.0 9.8 0.0
21/10/17 07:14 9.8 98 9.5 0.0 0.0 0 0.0 0.0 1017.0 0.0 0.0 9.8 0.0
21/10/17 07:13 9.8 98 9.5 0.0 0.0 0 0.0 0.0 1017.0 0.0 0.0 9.8 0.0
21/10/17 07:12 9.8 98 9.5 0.0 0.0 0 0.0 0.0 1017.0 0.0 0.0 9.8 0.0
21/10/17 07:11 9.8 98 9.5 0.0 0.0 0 0.0 0.0 1017.0 0.0 0.0 9.8 0.0
21/10/17 07:10 9.7 98 9.4 0.0 0.0 0 0.0 0.0 1017.0 0.0 0.0 9.7 0.0
21/10/17 07:09 9.7 98 9.4 0.0 0.0 0 0.0 0.0 1017.0 0.0 0.0 9.7 0.0
21/10/17 07:08 9.7 98 9.4 0.0 0.0 0 0.0 0.0 1016.0 0.0 0.0 9.7 0.0
21/10/17 07:07 9.6 98 9.3 0.0 0.0 0 0.0 0.0 1016.0 0.0 0.0 9.6 0.0
21/10/17 07:06 9.6 98 9.3 0.0 0.0 0 0.0 0.0 1016.0 0.0 0.0 9.6 0.0
21/10/17 07:05 9.6 98 9.3 0.0 0.0 0 0.0 0.0 1016.0 0.0 0.0 9.6 0.0
21/10/17 07:04 9.6 98 9.3 0.0 0.0 0 0.0 0.0 1016.0 0.0 0.0 9.6 0.0
21/10/17 07:03 9.6 98 9.3 0.0 0.0 0 0.0 0.0 1016.0 0.0 0.0 9.6 0.0
21/10/17 07:00 9.6 98 9.3 0.0 0.0 0 0.0 0.0 1016.0 0.0 0.0 9.6 0.0
21/10/17 06:59 9.6 98 9.3 0.0 0.0 0 0.0 0.0 1016.0 0.0 0.0 9.6 0.0
21/10/17 06:58 9.6 98 9.3 0.0 0.0 0 0.0 0.0 1016.0 0.0 0.0 9.6 0.0
21/10/17 06:57 9.6 98 9.3 0.0 0.0 0 0.0 0.0 1016.0 0.0 0.0 9.6 0.0
21/10/17 06:56 9.6 98 9.3 0.0 0.0 0 0.0 0.0 1016.0 0.0 0.0 9.6 0.0
21/10/17 06:55 9.6 98 9.3 0.0 0.0 0 0.0 0.0 1016.0 0.0 0.0 9.6 0.0
21/10/17 06:54 9.6 98 9.3 0.0 0.0 0 0.0 0.0 1016.0 0.0 0.0 9.6 0.0
21/10/17 06:53 9.6 98 9.3 0.0 0.0 0 0.0 0.0 1017.0 0.0 0.0 9.6 0.0
21/10/17 06:52 9.6 98 9.3 0.0 0.0 0 0.0 0.0 1017.0 0.0 0.0 9.6 0.0
21/10/17 06:51 9.6 98 9.3 0.0 0.0 0 0.0 0.0 1017.0 0.0 0.0 9.6 0.0
21/10/17 06:50 9.6 98 9.3 0.0 0.0 0 0.0 0.0 1017.0 0.0 0.0 9.6 0.0
21/10/17 06:49 9.6 98 9.3 0.0 0.0 0 0.0 0.0 1017.0 0.0 0.0 9.6 0.0
21/10/17 06:48 9.6 98 9.3 0.0 0.0 0 0.0 0.0 1017.0 0.0 0.0 9.6 0.0
21/10/17 06:47 9.6 98 9.3 0.0 0.0 0 0.0 0.0 1017.0 0.0 0.0 9.6 0.0
21/10/17 06:46 9.6 98 9.3 0.0 0.0 0 0.0 0.0 1017.0 0.0 0.0 9.6 0.0
21/10/17 06:45 9.6 98 9.3 0.0 0.0 0 0.0 0.0 1017.0 0.0 0.0 9.6 0.0
21/10/17 06:44 9.6 98 9.3 0.0 0.0 0 0.0 0.0 1017.0 0.0 0.0 9.6 0.0
21/10/17 06:43 9.6 98 9.3 0.0 0.0 0 0.0 0.0 1017.0 0.0 0.0 9.6 0.0
21/10/17 06:42 9.7 98 9.4 0.0 0.0 0 0.0 0.0 1017.0 0.0 0.0 9.7 0.0
21/10/17 06:41 9.7 98 9.4 0.0 0.0 0 0.0 0.0 1017.0 0.0 0.0 9.7 0.0
21/10/17 06:40 9.7 98 9.4 0.0 0.0 0 0.0 0.0 1017.0 0.0 0.0 9.7 0.0
21/10/17 06:39 9.7 98 9.4 0.0 0.0 0 0.0 0.0 1017.0 0.0 0.0 9.7 0.0
21/10/17 06:38 9.7 98 9.4 0.0 0.0 0 0.0 0.0 1017.0 0.0 0.0 9.7 0.0
21/10/17 06:37 9.8 98 9.5 0.0 0.0 0 0.0 0.0 1017.0 0.0 0.0 9.8 0.0
21/10/17 06:36 9.8 98 9.5 0.0 0.0 0 0.0 0.0 1017.0 0.0 0.0 9.8 0.0
21/10/17 06:35 9.8 98 9.5 0.0 0.0 0 0.0 0.0 1017.0 0.0 0.0 9.8 0.0
21/10/17 06:34 9.8 98 9.5 0.0 0.0 0 0.0 0.0 1017.0 0.0 0.0 9.8 0.0
21/10/17 06:33 9.8 98 9.5 0.0 0.0 0 0.0 0.0 1017.0 0.0 0.0 9.8 0.0
21/10/17 06:32 9.8 98 9.5 0.0 0.0 0 0.0 0.0 1017.0 0.0 0.0 9.8 0.0
21/10/17 06:31 9.8 98 9.5 0.0 0.0 0 0.0 0.0 1017.0 0.0 0.0 9.8 0.0
21/10/17 06:30 9.9 98 9.6 0.0 0.0 0 0.0 0.0 1017.0 0.0 0.0 9.9 0.0
21/10/17 06:29 9.9 98 9.6 0.0 0.0 0 0.0 0.0 1017.0 0.0 0.0 9.9 0.0
21/10/17 06:28 9.9 98 9.6 0.0 0.0 0 0.0 0.0 1017.0 0.0 0.0 9.9 0.0
21/10/17 06:27 9.9 98 9.6 0.0 0.0 0 0.0 0.0 1017.0 0.0 0.0 9.9 0.0
21/10/17 06:26 9.9 98 9.6 0.0 0.0 0 0.0 0.0 1017.0 0.0 0.0 9.9 0.0
21/10/17 06:25 9.9 98 9.6 0.0 0.0 0 0.0 0.0 1017.0 0.0 0.0 9.9 0.0
21/10/17 06:24 9.9 98 9.6 0.0 0.0 0 0.0 0.0 1017.0 0.0 0.0 9.9 0.0
21/10/17 06:23 9.9 98 9.6 0.0 0.0 0 0.0 0.0 1017.0 0.0 0.0 9.9 0.0
21/10/17 06:22 10.0 98 9.7 0.0 0.0 0 0.0 0.0 1017.0 0.0 0.0 10.0 0.0
21/10/17 06:21 10.0 98 9.7 0.0 0.0 0 0.0 0.0 1017.0 0.0 0.0 10.0 0.0
21/10/17 06:20 10.0 98 9.7 0.0 0.0 0 0.0 0.0 1017.0 0.0 0.0 10.0 0.0
21/10/17 06:19 10.0 98 9.7 0.0 0.0 0 0.0 0.0 1017.0 0.0 0.0 10.0 0.0
21/10/17 06:18 10.0 98 9.7 0.0 0.0 0 0.0 0.0 1017.0 0.0 0.0 10.0 0.0
21/10/17 06:17 10.0 98 9.7 0.0 0.0 0 0.0 0.0 1017.0 0.0 0.0 10.0 0.0
21/10/17 06:16 10.0 98 9.7 0.0 0.0 0 0.0 0.0 1017.0 0.0 0.0 10.0 0.0
21/10/17 06:15 10.0 98 9.7 0.0 0.0 0 0.0 0.0 1017.0 0.0 0.0 10.0 0.0
21/10/17 06:14 10.0 98 9.7 0.0 0.0 0 0.0 0.0 1017.0 0.0 0.0 10.0 0.0
21/10/17 06:13 10.0 98 9.7 0.0 0.0 0 0.0 0.0 1017.0 0.0 0.0 10.0 0.0
21/10/17 06:12 10.0 98 9.7 0.0 0.0 0 0.0 0.0 1017.0 0.0 0.0 10.0 0.0
21/10/17 06:11 10.1 98 9.8 0.0 0.0 0 0.0 0.0 1017.0 0.0 0.0 10.1 0.0
21/10/17 06:10 10.1 98 9.8 0.0 0.0 0 0.0 0.0 1017.0 0.0 0.0 10.1 0.0
21/10/17 06:09 10.1 98 9.8 0.0 0.0 0 0.0 0.0 1017.0 0.0 0.0 10.1 0.0
21/10/17 06:08 10.1 98 9.8 0.0 0.0 0 0.0 0.0 1016.0 0.0 0.0 10.1 0.0
21/10/17 06:07 10.1 98 9.8 0.0 0.0 0 0.0 0.0 1016.0 0.0 0.0 10.1 0.0
21/10/17 06:06 10.1 98 9.8 0.0 0.0 0 0.0 0.0 1016.0 0.0 0.0 10.1 0.0
21/10/17 06:05 10.1 98 9.8 0.0 0.0 0 0.0 0.0 1016.0 0.0 0.0 10.1 0.0
21/10/17 06:04 10.1 98 9.8 0.0 0.0 0 0.0 0.0 1016.0 0.0 0.0 10.1 0.0
21/10/17 06:03 10.1 98 9.8 0.0 0.0 0 0.0 0.0 1016.0 0.0 0.0 10.1 0.0
21/10/17 05:47 10.2 98 9.9 0.0 0.0 0 0.0 0.0 1015.0 0.0 0.0 10.2 0.0
21/10/17 05:46 10.3 98 10.0 0.0 0.0 0 0.0 0.0 1015.0 0.0 0.0 10.3 0.0
21/10/17 05:45 10.3 98 10.0 0.0 0.0 0 0.0 0.0 1015.0 0.0 0.0 10.3 0.0
21/10/17 05:44 10.3 98 10.0 0.0 0.0 0 0.0 0.0 1015.0 0.0 0.0 10.3 0.0
21/10/17 05:43 10.3 98 10.0 0.0 0.0 0 0.0 0.0 1015.0 0.0 0.0 10.3 0.0
21/10/17 05:42 10.4 98 10.1 0.0 0.0 0 0.0 0.0 1015.0 0.0 0.0 10.4 0.0
21/10/17 05:41 10.4 98 10.1 0.0 0.0 0 0.0 0.0 1015.0 0.0 0.0 10.4 0.0
21/10/17 05:40 10.4 98 10.1 0.0 0.0 0 0.0 0.0 1015.0 0.0 0.0 10.4 0.0
21/10/17 05:39 10.4 98 10.1 0.0 0.0 0 0.0 0.0 1015.0 0.0 0.0 10.4 0.0
21/10/17 05:38 10.4 98 10.1 0.0 0.0 0 0.0 0.0 1015.0 0.0 0.0 10.4 0.0
21/10/17 05:37 10.5 98 10.2 0.0 0.0 0 0.0 0.0 1015.0 0.0 0.0 10.5 0.0
21/10/17 05:36 10.5 98 10.2 0.0 0.0 0 0.0 0.0 1015.0 0.0 0.0 10.5 0.0
21/10/17 05:35 10.5 98 10.2 0.0 0.0 0 0.0 0.0 1015.0 0.0 0.0 10.5 0.0
21/10/17 05:34 10.5 98 10.2 0.0 0.0 0 0.0 0.0 1015.0 0.0 0.0 10.5 0.0
21/10/17 05:33 10.5 98 10.2 0.0 0.0 0 0.0 0.0 1015.0 0.0 0.0 10.5 0.0
21/10/17 05:32 10.5 98 10.2 0.0 0.0 0 0.0 0.0 1015.0 0.0 0.0 10.5 0.0
21/10/17 05:31 10.5 98 10.2 0.0 0.0 0 0.0 0.0 1015.0 0.0 0.0 10.5 0.0
21/10/17 05:30 10.5 98 10.2 0.0 0.0 0 0.0 0.0 1015.0 0.0 0.0 10.5 0.0
21/10/17 05:29 10.5 98 10.2 0.0 0.0 0 0.0 0.0 1015.0 0.0 0.0 10.5 0.0
21/10/17 05:28 10.5 98 10.2 0.0 0.0 0 0.0 0.0 1015.0 0.0 0.0 10.5 0.0
21/10/17 05:27 10.5 98 10.2 0.0 0.0 0 0.0 0.0 1015.0 0.0 0.0 10.5 0.0
21/10/17 05:26 10.5 98 10.2 0.0 0.0 0 0.0 0.0 1015.0 0.0 0.0 10.5 0.0
21/10/17 05:25 10.5 98 10.2 0.0 0.0 0 0.0 0.0 1015.0 0.0 0.0 10.5 0.0
21/10/17 05:24 10.5 98 10.2 0.0 0.0 0 0.0 0.0 1015.0 0.0 0.0 10.5 0.0
21/10/17 05:23 10.5 98 10.2 0.0 0.0 0 0.0 0.0 1014.0 0.0 0.0 10.5 0.0
21/10/17 05:22 10.5 98 10.2 0.0 0.0 0 0.0 0.0 1014.0 0.0 0.0 10.5 0.0
21/10/17 05:21 10.5 98 10.2 0.0 0.0 0 0.0 0.0 1014.0 0.0 0.0 10.5 0.0
21/10/17 05:20 10.5 98 10.2 0.0 0.0 0 0.0 0.0 1014.0 0.0 0.0 10.5 0.0
21/10/17 05:19 10.5 98 10.2 0.0 0.0 0 0.0 0.0 1014.0 0.0 0.0 10.5 0.0
21/10/17 05:18 10.5 98 10.2 0.0 0.0 0 0.0 0.0 1014.0 0.0 0.0 10.5 0.0
21/10/17 05:17 10.5 98 10.2 0.0 0.0 0 0.0 0.0 1014.0 0.0 0.0 10.5 0.0
21/10/17 05:16 10.5 98 10.2 0.0 0.0 0 0.0 0.0 1014.0 0.0 0.0 10.5 0.0
21/10/17 05:15 10.6 98 10.3 0.0 0.0 0 0.0 0.0 1014.0 0.0 0.0 10.6 0.0
21/10/17 05:14 10.6 98 10.3 0.0 0.0 0 0.0 0.0 1014.0 0.0 0.0 10.6 0.0
21/10/17 05:13 10.6 98 10.3 0.0 0.0 0 0.0 0.0 1014.0 0.0 0.0 10.6 0.0
21/10/17 05:12 10.6 98 10.3 0.0 0.0 0 0.0 0.0 1014.0 0.0 0.0 10.6 0.0
21/10/17 05:11 10.6 98 10.3 0.0 0.0 0 0.0 0.0 1014.0 0.0 0.0 10.6 0.0
21/10/17 05:10 10.6 98 10.3 0.0 0.0 0 0.0 0.0 1014.0 0.0 0.0 10.6 0.0
21/10/17 05:09 10.6 98 10.3 0.0 0.0 0 0.0 0.0 1014.0 0.0 0.0 10.6 0.0
21/10/17 05:08 10.6 98 10.3 0.0 0.0 0 0.0 0.0 1015.0 0.0 0.0 10.6 0.0
21/10/17 05:07 10.6 98 10.3 0.0 0.0 0 0.0 0.0 1015.0 0.0 0.0 10.6 0.0
21/10/17 05:06 10.6 98 10.3 0.0 0.0 0 0.0 0.0 1015.0 0.0 0.0 10.6 0.0
21/10/17 05:05 10.6 98 10.3 0.0 0.0 0 0.0 0.0 1015.0 0.0 0.0 10.6 0.0
21/10/17 05:04 10.6 98 10.3 0.0 0.0 0 0.0 0.0 1015.0 0.0 0.0 10.6 0.0
21/10/17 05:03 10.7 98 10.4 0.0 0.0 0 0.0 0.0 1015.0 0.0 0.0 10.7 0.0
21/10/17 04:59 10.7 98 10.4 0.0 0.0 0 0.0 0.0 1015.0 0.0 0.0 10.7 0.0
21/10/17 04:58 10.7 98 10.4 0.0 0.0 0 0.0 0.0 1015.0 0.0 0.0 10.7 0.0
21/10/17 04:57 10.7 98 10.4 0.0 0.0 0 0.0 0.0 1015.0 0.0 0.0 10.7 0.0
21/10/17 04:56 10.7 98 10.4 0.0 0.0 0 0.0 0.0 1015.0 0.0 0.0 10.7 0.0
21/10/17 04:55 10.7 98 10.4 0.0 0.0 0 0.0 0.0 1015.0 0.0 0.0 10.7 0.0
21/10/17 04:54 10.7 98 10.4 0.0 0.0 0 0.0 0.0 1015.0 0.0 0.0 10.7 0.0
21/10/17 04:53 10.7 98 10.4 0.0 0.0 0 0.0 0.0 1015.0 0.0 0.0 10.7 0.0
21/10/17 04:52 10.7 98 10.4 0.0 0.0 0 0.0 0.0 1015.0 0.0 0.0 10.7 0.0
21/10/17 04:51 10.7 98 10.4 0.0 0.0 0 0.0 0.0 1015.0 0.0 0.0 10.7 0.0
21/10/17 04:50 10.7 98 10.4 0.0 0.0 0 0.0 0.0 1015.0 0.0 0.0 10.7 0.0
21/10/17 04:49 10.7 98 10.4 0.0 0.0 0 0.0 0.0 1015.0 0.0 0.0 10.7 0.0
21/10/17 04:48 10.7 98 10.4 0.0 0.0 0 0.0 0.0 1015.0 0.0 0.0 10.7 0.0
21/10/17 04:47 10.7 98 10.4 0.0 0.0 0 0.0 0.0 1015.0 0.0 0.0 10.7 0.0
21/10/17 04:46 10.7 98 10.4 0.0 0.0 0 0.0 0.0 1015.0 0.0 0.0 10.7 0.0
21/10/17 04:45 10.7 98 10.4 0.0 0.0 0 0.0 0.0 1015.0 0.0 0.0 10.7 0.0
21/10/17 04:44 10.7 98 10.4 0.0 0.0 0 0.0 0.0 1015.0 0.0 0.0 10.7 0.0
21/10/17 04:43 10.7 98 10.4 0.0 0.0 0 0.0 0.0 1015.0 0.0 0.0 10.7 0.0
21/10/17 04:42 10.7 98 10.4 0.0 0.0 0 0.0 0.0 1015.0 0.0 0.0 10.7 0.0
21/10/17 04:41 10.7 98 10.4 0.0 0.0 0 0.0 0.0 1015.0 0.0 0.0 10.7 0.0
21/10/17 04:40 10.7 98 10.4 0.0 0.0 0 0.0 0.0 1015.0 0.0 0.0 10.7 0.0
21/10/17 04:39 10.7 98 10.4 0.0 0.0 0 0.0 0.0 1015.0 0.0 0.0 10.7 0.0
21/10/17 04:38 10.7 98 10.4 0.0 0.0 0 0.0 0.0 1015.0 0.0 0.0 10.7 0.0
21/10/17 04:37 10.7 98 10.4 0.0 0.0 0 0.0 0.0 1015.0 0.0 0.0 10.7 0.0
21/10/17 04:36 10.7 98 10.4 0.0 0.0 0 0.0 0.0 1015.0 0.0 0.0 10.7 0.0
21/10/17 04:35 10.7 98 10.4 0.0 0.0 0 0.0 0.0 1015.0 0.0 0.0 10.7 0.0
21/10/17 04:34 10.7 98 10.4 0.0 0.0 0 0.0 0.0 1015.0 0.0 0.0 10.7 0.0
21/10/17 04:33 10.8 98 10.5 0.0 0.0 0 0.0 0.0 1015.0 0.0 0.0 10.8 0.0
21/10/17 04:32 10.8 98 10.5 0.0 0.0 0 0.0 0.0 1015.0 0.0 0.0 10.8 0.0
21/10/17 04:31 10.8 98 10.5 0.0 0.0 0 0.0 0.0 1015.0 0.0 0.0 10.8 0.0
21/10/17 04:30 10.8 98 10.5 0.0 0.0 0 0.0 0.0 1015.0 0.0 0.0 10.8 0.0
21/10/17 04:29 10.8 98 10.5 0.0 0.0 0 0.0 0.0 1015.0 0.0 0.0 10.8 0.0
21/10/17 04:28 10.8 98 10.5 0.0 0.0 0 0.0 0.0 1015.0 0.0 0.0 10.8 0.0
21/10/17 04:27 10.8 98 10.5 0.0 0.0 0 0.0 0.0 1015.0 0.0 0.0 10.8 0.0
21/10/17 04:26 10.8 98 10.5 0.0 0.0 0 0.0 0.0 1015.0 0.0 0.0 10.8 0.0
21/10/17 04:25 10.8 98 10.5 0.0 0.0 0 0.0 0.0 1015.0 0.0 0.0 10.8 0.0
21/10/17 04:24 10.8 98 10.5 0.0 0.0 0 0.0 0.0 1015.0 0.0 0.0 10.8 0.0
21/10/17 04:23 10.8 98 10.5 0.0 0.0 0 0.0 0.0 1015.0 0.0 0.0 10.8 0.0
21/10/17 04:22 10.8 98 10.5 0.0 0.0 0 0.0 0.0 1015.0 0.0 0.0 10.8 0.0
21/10/17 04:21 10.8 98 10.5 0.0 0.0 0 0.0 0.0 1015.0 0.0 0.0 10.8 0.0
21/10/17 04:20 10.8 98 10.5 0.0 0.0 0 0.0 0.0 1015.0 0.0 0.0 10.8 0.0
21/10/17 04:19 10.9 98 10.6 0.0 0.0 0 0.0 0.0 1015.0 0.0 0.0 10.9 0.0
21/10/17 04:18 10.9 98 10.6 0.0 0.0 0 0.0 0.0 1015.0 0.0 0.0 10.9 0.0
21/10/17 04:17 10.9 98 10.6 0.0 0.0 0 0.0 0.0 1015.0 0.0 0.0 10.9 0.0
21/10/17 04:16 10.8 98 10.5 0.0 0.0 0 0.0 0.0 1015.0 0.0 0.0 10.8 0.0
21/10/17 04:15 10.9 98 10.6 0.0 0.0 0 0.0 0.0 1015.0 0.0 0.0 10.9 0.0
21/10/17 04:14 10.9 98 10.6 0.0 0.0 0 0.0 0.0 1015.0 0.0 0.0 10.9 0.0
21/10/17 04:13 10.9 98 10.6 0.0 0.0 0 0.0 0.0 1015.0 0.0 0.0 10.9 0.0
21/10/17 04:12 10.9 98 10.6 0.0 0.0 0 0.0 0.0 1015.0 0.0 0.0 10.9 0.0
21/10/17 04:11 10.9 98 10.6 0.0 0.0 0 0.0 0.0 1015.0 0.0 0.0 10.9 0.0
21/10/17 04:10 10.9 98 10.6 0.0 0.0 0 0.0 0.0 1015.0 0.0 0.0 10.9 0.0
21/10/17 04:09 10.9 98 10.6 0.0 0.0 0 0.0 0.0 1015.0 0.0 0.0 10.9 0.0
21/10/17 04:08 10.9 98 10.6 0.0 0.0 0 0.0 0.0 1015.0 0.0 0.0 10.9 0.0
21/10/17 04:07 10.9 98 10.6 0.0 0.0 0 0.0 0.0 1015.0 0.0 0.0 10.9 0.0
21/10/17 04:06 10.9 98 10.6 0.0 0.0 0 0.0 0.0 1015.0 0.0 0.0 10.9 0.0
21/10/17 04:05 10.9 98 10.6 0.0 0.0 0 0.0 0.0 1015.0 0.0 0.0 10.9 0.0
21/10/17 04:04 10.9 98 10.6 0.0 0.0 0 0.0 0.0 1015.0 0.0 0.0 10.9 0.0
21/10/17 04:03 10.9 98 10.6 0.0 0.0 0 0.0 0.0 1015.0 0.0 0.0 10.9 0.0
21/10/17 04:00 10.9 98 10.6 0.0 0.0 0 0.0 0.0 1015.0 0.0 0.0 10.9 0.0
21/10/17 03:59 10.9 98 10.6 0.0 0.0 0 0.0 0.0 1015.0 0.0 0.0 10.9 0.0
21/10/17 03:58 10.9 98 10.6 0.0 0.0 0 0.0 0.0 1015.0 0.0 0.0 10.9 0.0
21/10/17 03:57 10.9 98 10.6 0.0 0.0 0 0.0 0.0 1015.0 0.0 0.0 10.9 0.0
21/10/17 03:56 10.9 98 10.6 0.0 0.0 0 0.0 0.0 1015.0 0.0 0.0 10.9 0.0
21/10/17 03:55 10.9 98 10.6 0.0 0.0 0 0.0 0.0 1015.0 0.0 0.0 10.9 0.0
21/10/17 03:54 10.9 98 10.6 0.0 0.0 0 0.0 0.0 1015.0 0.0 0.0 10.9 0.0
21/10/17 03:53 10.9 98 10.6 0.0 0.0 0 0.0 0.0 1015.0 0.0 0.0 10.9 0.0
21/10/17 03:52 10.9 98 10.6 0.0 0.0 0 0.0 0.0 1015.0 0.0 0.0 10.9 0.0
21/10/17 03:51 11.0 98 10.7 0.0 0.0 0 0.0 0.0 1015.0 0.0 0.0 11.0 0.0
21/10/17 03:50 11.0 98 10.7 0.0 0.0 0 0.0 0.0 1015.0 0.0 0.0 11.0 0.0
21/10/17 03:49 11.0 98 10.7 0.0 0.0 0 0.0 0.0 1015.0 0.0 0.0 11.0 0.0
21/10/17 03:48 11.0 98 10.7 0.0 0.0 0 0.0 0.0 1015.0 0.0 0.0 11.0 0.0
21/10/17 03:47 11.0 98 10.7 0.0 0.0 0 0.0 0.0 1015.0 0.0 0.0 11.0 0.0
21/10/17 03:46 11.0 98 10.7 0.0 0.0 0 0.0 0.0 1015.0 0.0 0.0 11.0 0.0
21/10/17 03:45 11.0 98 10.7 0.0 0.0 0 0.0 0.0 1015.0 0.0 0.0 11.0 0.0
21/10/17 03:44 11.0 98 10.7 0.0 0.0 0 0.0 0.0 1015.0 0.0 0.0 11.0 0.0
21/10/17 03:43 11.0 98 10.7 0.0 0.0 0 0.0 0.0 1015.0 0.0 0.0 11.0 0.0
21/10/17 03:42 11.1 98 10.8 0.0 0.0 0 0.0 0.0 1015.0 0.0 0.0 11.1 0.0
21/10/17 03:41 11.0 98 10.7 0.0 0.0 0 0.0 0.0 1015.0 0.0 0.0 11.0 0.0
21/10/17 03:40 11.1 98 10.8 0.0 0.0 0 0.0 0.0 1015.0 0.0 0.0 11.1 0.0
21/10/17 03:39 11.0 98 10.7 0.0 0.0 0 0.0 0.0 1015.0 0.0 0.0 11.0 0.0
21/10/17 03:38 11.1 98 10.8 0.0 0.0 0 0.0 0.0 1015.0 0.0 0.0 11.1 0.0
21/10/17 03:37 11.1 98 10.8 0.0 0.0 0 0.0 0.0 1015.0 0.0 0.0 11.1 0.0
21/10/17 03:36 11.1 98 10.8 0.0 0.0 0 0.0 0.0 1015.0 0.0 0.0 11.1 0.0
21/10/17 03:35 11.1 98 10.8 0.0 0.0 0 0.0 0.0 1015.0 0.0 0.0 11.1 0.0
21/10/17 03:34 11.1 98 10.8 0.0 0.0 0 0.0 0.0 1015.0 0.0 0.0 11.1 0.0
21/10/17 03:33 11.1 98 10.8 0.0 0.0 0 0.0 0.0 1015.0 0.0 0.0 11.1 0.0
21/10/17 03:32 11.1 98 10.8 0.0 0.0 0 0.0 0.0 1015.0 0.0 0.0 11.1 0.0
21/10/17 03:31 11.1 98 10.8 0.0 0.0 0 0.0 0.0 1015.0 0.0 0.0 11.1 0.0
21/10/17 03:30 11.1 98 10.8 0.0 0.0 0 0.0 0.0 1015.0 0.0 0.0 11.1 0.0
21/10/17 03:29 11.1 98 10.8 0.0 0.0 0 0.0 0.0 1015.0 0.0 0.0 11.1 0.0
21/10/17 03:28 11.1 98 10.8 0.0 0.0 0 0.0 0.0 1015.0 0.0 0.0 11.1 0.0
21/10/17 03:27 11.1 98 10.8 0.0 0.0 0 0.0 0.0 1015.0 0.0 0.0 11.1 0.0
21/10/17 03:26 11.2 98 10.9 0.0 0.0 0 0.0 0.0 1015.0 0.0 0.0 11.2 0.0
21/10/17 03:25 11.1 98 10.8 0.0 0.0 0 0.0 0.0 1015.0 0.0 0.0 11.1 0.0
21/10/17 03:24 11.1 98 10.8 0.0 0.0 0 0.0 0.0 1015.0 0.0 0.0 11.1 0.0
21/10/17 03:23 11.1 98 10.8 0.0 0.0 0 0.0 0.0 1016.0 0.0 0.0 11.1 0.0
21/10/17 03:22 11.1 98 10.8 0.0 0.0 0 0.0 0.0 1016.0 0.0 0.0 11.1 0.0
21/10/17 03:21 11.1 98 10.8 0.0 0.0 0 0.0 0.0 1016.0 0.0 0.0 11.1 0.0
21/10/17 03:20 11.2 98 10.9 0.0 0.0 0 0.0 0.0 1016.0 0.0 0.0 11.2 0.0
21/10/17 03:19 11.1 98 10.8 0.0 0.0 0 0.0 0.0 1016.0 0.0 0.0 11.1 0.0
21/10/17 03:18 11.2 98 10.9 0.0 0.0 0 0.0 0.0 1016.0 0.0 0.0 11.2 0.0
21/10/17 03:17 11.2 98 10.9 0.0 0.0 0 0.0 0.0 1016.0 0.0 0.0 11.2 0.0
21/10/17 03:16 11.2 98 10.9 0.0 0.0 0 0.0 0.0 1016.0 0.0 0.0 11.2 0.0
21/10/17 03:15 11.2 98 10.9 0.0 0.0 0 0.0 0.0 1016.0 0.0 0.0 11.2 0.0
21/10/17 03:14 11.2 98 10.9 0.0 0.0 0 0.0 0.0 1016.0 0.0 0.0 11.2 0.0
21/10/17 03:13 11.3 98 11.0 0.0 0.0 0 0.0 0.0 1016.0 0.0 0.0 11.3 0.0
21/10/17 03:12 11.3 98 11.0 0.0 0.0 0 0.0 0.0 1016.0 0.0 0.0 11.3 0.0
21/10/17 03:11 11.3 98 11.0 0.0 0.0 0 0.0 0.0 1016.0 0.0 0.0 11.3 0.0
21/10/17 03:10 11.2 98 10.9 0.0 0.0 0 0.0 0.0 1016.0 0.0 0.0 11.2 0.0
21/10/17 03:09 11.3 98 11.0 0.0 0.0 0 0.0 0.0 1016.0 0.0 0.0 11.3 0.0
21/10/17 03:08 11.3 98 11.0 0.0 0.0 0 0.0 0.0 1016.0 0.0 0.0 11.3 0.0
21/10/17 03:07 11.3 98 11.0 0.0 0.0 0 0.0 0.0 1016.0 0.0 0.0 11.3 0.0
21/10/17 03:06 11.3 98 11.0 0.0 0.0 0 0.0 0.0 1016.0 0.0 0.0 11.3 0.0
21/10/17 03:05 11.3 98 11.0 0.0 0.0 0 0.0 0.0 1016.0 0.0 0.0 11.3 0.0
21/10/17 03:04 11.3 98 11.0 0.0 0.0 0 0.0 0.0 1016.0 0.0 0.0 11.3 0.0
21/10/17 03:03 11.3 98 11.0 0.0 0.0 0 0.0 0.0 1016.0 0.0 0.0 11.3 0.0
21/10/17 03:00 11.3 98 11.0 0.0 0.0 0 0.0 0.0 1016.0 0.0 0.0 11.3 0.0
21/10/17 02:59 11.3 98 11.0 0.0 0.0 0 0.0 0.0 1016.0 0.0 0.0 11.3 0.0
21/10/17 02:58 11.3 98 11.0 0.0 0.0 0 0.0 0.0 1016.0 0.0 0.0 11.3 0.0
21/10/17 02:57 11.3 98 11.0 0.0 0.0 0 0.0 0.0 1016.0 0.0 0.0 11.3 0.0
21/10/17 02:56 11.3 98 11.0 0.0 0.0 0 0.0 0.0 1016.0 0.0 0.0 11.3 0.0
21/10/17 02:55 11.3 98 11.0 0.0 0.0 0 0.0 0.0 1016.0 0.0 0.0 11.3 0.0
21/10/17 02:54 11.3 98 11.0 0.0 0.0 0 0.0 0.0 1016.0 0.0 0.0 11.3 0.0
21/10/17 02:53 11.3 98 11.0 0.0 0.0 0 0.0 0.0 1017.0 0.0 0.0 11.3 0.0
21/10/17 02:52 11.3 98 11.0 0.0 0.0 0 0.0 0.0 1017.0 0.0 0.0 11.3 0.0
21/10/17 02:51 11.3 98 11.0 0.0 0.0 0 0.0 0.0 1017.0 0.0 0.0 11.3 0.0
21/10/17 02:50 11.3 98 11.0 0.0 0.0 0 0.0 0.0 1017.0 0.0 0.0 11.3 0.0
21/10/17 02:49 11.3 98 11.0 0.0 0.0 0 0.0 0.0 1017.0 0.0 0.0 11.3 0.0
21/10/17 02:48 11.3 98 11.0 0.0 0.0 0 0.0 0.0 1017.0 0.0 0.0 11.3 0.0
21/10/17 02:47 11.3 98 11.0 0.0 0.0 0 0.0 0.0 1017.0 0.0 0.0 11.3 0.0
21/10/17 02:46 11.3 98 11.0 0.0 0.0 0 0.0 0.0 1017.0 0.0 0.0 11.3 0.0
21/10/17 02:45 11.4 98 11.1 0.0 0.0 0 0.0 0.0 1017.0 0.0 0.0 11.4 0.0
21/10/17 02:44 11.4 98 11.1 0.0 0.0 0 0.0 0.0 1017.0 0.0 0.0 11.4 0.0
21/10/17 02:43 11.3 98 11.0 0.0 0.0 0 0.0 0.0 1017.0 0.0 0.0 11.3 0.0
21/10/17 02:42 11.4 98 11.1 0.0 0.0 0 0.0 0.0 1017.0 0.0 0.0 11.4 0.0
21/10/17 02:41 11.4 98 11.1 0.0 0.0 0 0.0 0.0 1017.0 0.0 0.0 11.4 0.0
21/10/17 02:40 11.4 98 11.1 0.0 0.0 0 0.0 0.0 1017.0 0.0 0.0 11.4 0.0
21/10/17 02:39 11.4 98 11.1 0.0 0.0 0 0.0 0.0 1017.0 0.0 0.0 11.4 0.0
21/10/17 02:38 11.4 98 11.1 0.0 0.0 0 0.0 0.0 1017.0 0.0 0.0 11.4 0.0
21/10/17 02:37 11.4 98 11.1 0.0 0.0 0 0.0 0.0 1017.0 0.0 0.0 11.4 0.0
21/10/17 02:36 11.4 98 11.1 0.0 0.0 0 0.0 0.0 1017.0 0.0 0.0 11.4 0.0
21/10/17 02:35 11.4 98 11.1 0.0 0.0 0 0.0 0.0 1017.0 0.0 0.0 11.4 0.0
21/10/17 02:34 11.4 98 11.1 0.0 0.0 0 0.0 0.0 1017.0 0.0 0.0 11.4 0.0
21/10/17 02:33 11.4 98 11.1 0.0 0.0 0 0.0 0.0 1017.0 0.0 0.0 11.4 0.0
21/10/17 02:32 11.4 98 11.1 0.0 0.0 0 0.0 0.0 1017.0 0.0 0.0 11.4 0.0
21/10/17 02:31 11.4 98 11.1 0.0 0.0 0 0.0 0.0 1017.0 0.0 0.0 11.4 0.0
21/10/17 02:30 11.4 98 11.1 0.0 0.0 0 0.0 0.0 1017.0 0.0 0.0 11.4 0.0
21/10/17 02:29 11.5 98 11.2 0.0 0.0 0 0.0 0.0 1017.0 0.0 0.0 11.5 0.0
21/10/17 02:28 11.5 98 11.2 0.0 0.0 0 0.0 0.0 1017.0 0.0 0.0 11.5 0.0
21/10/17 02:27 11.5 98 11.2 0.0 0.0 0 0.0 0.0 1017.0 0.0 0.0 11.5 0.0
21/10/17 02:26 11.5 98 11.2 0.0 0.0 0 0.0 0.0 1017.0 0.0 0.0 11.5 0.0
21/10/17 02:25 11.5 98 11.2 0.0 0.0 0 0.0 0.0 1017.0 0.0 0.0 11.5 0.0
21/10/17 02:24 11.5 98 11.2 0.0 0.0 0 0.0 0.0 1017.0 0.0 0.0 11.5 0.0
21/10/17 02:23 11.5 98 11.2 0.0 0.0 0 0.0 0.0 1017.0 0.0 0.0 11.5 0.0
21/10/17 02:22 11.5 98 11.2 0.0 0.0 0 0.0 0.0 1017.0 0.0 0.0 11.5 0.0
21/10/17 02:21 11.5 98 11.2 0.0 0.0 0 0.0 0.0 1017.0 0.0 0.0 11.5 0.0
21/10/17 02:20 11.6 98 11.3 0.0 0.0 0 0.0 0.0 1017.0 0.0 0.0 11.6 0.0
21/10/17 02:19 11.6 98 11.3 0.0 0.0 0 0.0 0.0 1017.0 0.0 0.0 11.6 0.0
21/10/17 02:18 11.6 98 11.3 0.0 0.0 0 0.0 0.0 1017.0 0.0 0.0 11.6 0.0
21/10/17 02:17 11.6 98 11.3 0.0 0.0 0 0.0 0.0 1017.0 0.0 0.0 11.6 0.0
21/10/17 02:16 11.6 98 11.3 0.0 0.0 0 0.0 0.0 1017.0 0.0 0.0 11.6 0.0
21/10/17 02:15 11.6 98 11.3 0.0 0.0 0 0.0 0.0 1017.0 0.0 0.0 11.6 0.0
21/10/17 02:14 11.6 98 11.3 0.0 0.0 0 0.0 0.0 1017.0 0.0 0.0 11.6 0.0
21/10/17 02:13 11.6 98 11.3 0.0 0.0 0 0.0 0.0 1017.0 0.0 0.0 11.6 0.0
21/10/17 02:12 11.6 98 11.3 0.0 0.0 0 0.0 0.0 1017.0 0.0 0.0 11.6 0.0
21/10/17 02:11 11.6 98 11.3 0.0 0.0 0 0.0 0.0 1017.0 0.0 0.0 11.6 0.0
21/10/17 02:10 11.6 98 11.3 0.0 0.0 0 0.0 0.0 1017.0 0.0 0.0 11.6 0.0
21/10/17 02:09 11.6 98 11.3 0.0 0.0 0 0.0 0.0 1017.0 0.0 0.0 11.6 0.0
21/10/17 02:08 11.7 98 11.4 0.0 0.0 0 0.0 0.0 1017.0 0.0 0.0 11.7 0.0
21/10/17 02:07 11.7 98 11.4 0.0 0.0 0 0.0 0.0 1017.0 0.0 0.0 11.7 0.0
21/10/17 02:06 11.7 98 11.4 0.0 0.0 0 0.0 0.0 1017.0 0.0 0.0 11.7 0.0
21/10/17 02:05 11.7 98 11.4 0.0 0.0 0 0.0 0.0 1017.0 0.0 0.0 11.7 0.0
21/10/17 02:04 11.6 98 11.3 0.0 0.0 0 0.0 0.0 1017.0 0.0 0.0 11.6 0.0
21/10/17 02:03 11.6 98 11.3 0.0 0.0 0 0.0 0.0 1017.0 0.0 0.0 11.6 0.0
21/10/17 01:14 11.9 98 11.6 0.0 0.0 0 0.0 0.0 1017.0 0.0 0.0 11.9 0.0
21/10/17 01:13 12.0 98 11.7 0.0 0.0 0 0.0 0.0 1017.0 0.0 0.0 12.0 0.0
21/10/17 01:12 11.9 98 11.6 0.0 0.0 0 0.0 0.0 1017.0 0.0 0.0 11.9 0.0
21/10/17 01:11 11.9 98 11.6 0.0 0.0 0 0.0 0.0 1017.0 0.0 0.0 11.9 0.0
21/10/17 01:10 11.9 98 11.6 0.0 0.0 0 0.0 0.0 1017.0 0.0 0.0 11.9 0.0
21/10/17 01:09 12.0 98 11.7 0.0 0.0 0 0.0 0.0 1017.0 0.0 0.0 12.0 0.0
21/10/17 01:08 12.0 98 11.7 0.0 0.0 0 0.0 0.0 1017.0 0.0 0.0 12.0 0.0
21/10/17 01:07 12.0 98 11.7 0.0 0.0 0 0.0 0.0 1017.0 0.0 0.0 12.0 0.0
21/10/17 01:06 12.0 98 11.7 0.0 0.0 0 0.0 0.0 1017.0 0.0 0.0 12.0 0.0
21/10/17 01:05 12.0 98 11.7 0.0 0.0 0 0.0 0.0 1017.0 0.0 0.0 12.0 0.0
21/10/17 01:04 12.0 98 11.7 0.0 0.0 0 0.0 0.0 1017.0 0.0 0.0 12.0 0.0
21/10/17 01:03 12.0 98 11.7 0.0 0.0 0 0.0 0.0 1017.0 0.0 0.0 12.0 0.0
21/10/17 01:00 12.0 98 11.7 1.4 1.4 45 34.8 0.0 1017.0 1.4 12.5 12.0 0.0
21/10/17 00:59 12.0 98 11.7 1.4 1.4 45 34.8 0.0 1017.0 1.4 12.5 12.0 0.0
21/10/17 00:58 12.0 98 11.7 1.4 1.4 45 34.8 0.0 1017.0 1.4 12.5 12.0 0.0
21/10/17 00:57 12.0 98 11.7 1.4 1.4 45 34.8 0.0 1017.0 1.4 12.5 12.0 0.0
21/10/17 00:56 12.0 98 11.7 1.4 1.4 45 34.8 0.0 1017.0 1.4 12.5 12.0 0.0
21/10/17 00:55 12.0 98 11.7 1.4 1.4 45 34.8 0.0 1017.0 1.4 12.5 12.0 0.0
21/10/17 00:54 12.0 98 11.7 1.4 1.4 45 34.8 0.0 1017.0 1.4 12.5 12.0 0.0
21/10/17 00:53 12.0 98 11.7 1.4 1.4 45 34.8 0.0 1017.0 1.4 12.5 12.0 0.0
21/10/17 00:52 12.0 98 11.7 1.4 1.4 45 34.8 0.0 1017.0 1.4 12.5 12.0 0.0
21/10/17 00:51 12.0 98 11.7 1.4 1.4 45 34.8 0.0 1017.0 1.4 12.5 12.0 0.0
21/10/17 00:50 12.0 98 11.7 1.4 1.4 45 34.8 0.0 1017.0 1.4 12.5 12.0 0.0
21/10/17 00:49 12.0 98 11.7 1.4 1.4 45 34.8 0.0 1017.0 1.4 12.5 12.0 0.0
21/10/17 00:48 12.0 98 11.7 1.4 1.4 45 34.8 0.0 1017.0 1.4 12.5 12.0 0.0
21/10/17 00:47 12.0 98 11.7 1.4 1.4 45 34.8 0.0 1017.0 1.4 12.5 12.0 0.0
21/10/17 00:46 12.0 98 11.7 1.4 1.4 45 34.8 0.0 1017.0 1.4 12.5 12.0 0.0
21/10/17 00:45 12.0 98 11.7 1.4 1.4 45 34.8 0.0 1017.0 1.4 12.5 12.0 0.0
21/10/17 00:44 12.0 98 11.7 1.4 1.4 45 34.8 0.0 1017.0 1.4 12.5 12.0 0.0
21/10/17 00:43 12.0 98 11.7 1.4 1.4 45 34.8 0.0 1017.0 1.4 12.5 12.0 0.0
21/10/17 00:42 12.0 98 11.7 1.4 1.4 45 34.8 0.0 1017.0 1.4 12.5 12.0 0.0
21/10/17 00:41 12.0 98 11.7 1.4 1.4 45 34.8 0.0 1017.0 1.4 12.5 12.0 0.0
21/10/17 00:40 12.0 98 11.7 1.4 1.4 45 34.8 0.0 1017.0 1.4 12.5 12.0 0.0
21/10/17 00:39 12.1 98 11.8 1.4 1.4 45 34.8 0.0 1017.0 1.4 12.5 12.1 0.0
21/10/17 00:38 12.0 98 11.7 1.4 1.4 45 34.8 0.0 1017.0 1.4 12.5 12.0 0.0
21/10/17 00:37 12.0 98 11.7 1.4 1.4 45 34.8 0.0 1017.0 1.4 12.5 12.0 0.0
21/10/17 00:36 12.1 98 11.8 1.4 1.4 45 34.8 0.0 1017.0 1.4 12.5 12.1 0.0
21/10/17 00:35 12.1 98 11.8 1.4 1.4 45 34.8 0.0 1017.0 1.4 12.5 12.1 0.0
21/10/17 00:34 12.0 98 11.7 1.4 1.4 45 34.8 0.0 1017.0 1.4 12.5 12.0 0.0
21/10/17 00:33 12.1 98 11.8 1.4 1.4 45 34.8 0.0 1017.0 1.4 12.5 12.1 0.0
21/10/17 00:32 12.1 98 11.8 1.4 1.4 45 34.8 0.0 1017.0 1.4 12.5 12.1 0.0
21/10/17 00:31 12.1 98 11.8 1.4 1.4 45 34.8 0.0 1017.0 1.4 12.5 12.1 0.0
21/10/17 00:30 12.1 98 11.8 1.4 1.4 45 34.8 0.0 1017.0 1.4 12.5 12.1 0.0
21/10/17 00:29 12.1 98 11.8 1.4 1.4 45 34.8 0.0 1017.0 1.4 12.5 12.1 0.0
21/10/17 00:28 12.1 98 11.8 1.4 1.4 45 34.8 0.0 1017.0 1.4 12.5 12.1 0.0
21/10/17 00:27 12.2 98 11.9 1.4 1.4 45 34.8 0.0 1017.0 1.4 12.5 12.2 0.0
21/10/17 00:26 12.2 98 11.9 1.4 1.4 45 34.8 0.0 1017.0 1.4 12.5 12.2 0.0
21/10/17 00:25 12.2 98 11.9 1.4 1.4 45 34.8 0.0 1017.0 1.4 12.5 12.2 0.0
21/10/17 00:24 12.2 98 11.9 1.4 1.4 45 34.8 0.0 1017.0 1.4 12.5 12.2 0.0
21/10/17 00:23 12.2 98 11.9 1.4 1.4 45 34.8 0.0 1017.0 1.4 12.5 12.2 0.0
21/10/17 00:22 12.3 98 12.0 1.4 1.4 45 34.8 0.0 1017.0 1.4 12.5 12.3 0.0
21/10/17 00:21 12.3 98 12.0 1.4 1.4 45 34.8 0.0 1017.0 1.4 12.5 12.3 0.0
21/10/17 00:20 12.3 98 12.0 1.4 1.4 45 34.8 0.0 1017.0 1.4 12.5 12.3 0.0
21/10/17 00:19 12.4 98 12.1 1.4 1.4 45 34.8 0.0 1017.0 1.4 12.5 12.4 0.0
21/10/17 00:18 12.4 98 12.1 1.4 1.4 45 34.8 0.0 1017.0 1.4 12.5 12.4 0.0
21/10/17 00:17 12.4 98 12.1 1.4 1.4 45 34.8 0.0 1017.0 1.4 12.5 12.4 0.0
21/10/17 00:16 12.4 98 12.1 1.4 1.4 45 34.8 0.0 1017.0 1.4 12.5 12.4 0.0
21/10/17 00:15 12.4 98 12.1 1.4 1.4 45 34.8 0.0 1017.0 1.4 12.5 12.4 0.0
21/10/17 00:14 12.4 98 12.1 1.4 1.4 45 34.8 0.0 1017.0 1.4 12.5 12.4 0.0
21/10/17 00:13 12.5 98 12.2 1.4 1.4 45 34.8 0.0 1017.0 1.4 12.5 12.5 0.0
21/10/17 00:12 12.4 98 12.1 1.4 1.4 45 34.8 0.0 1017.0 1.4 12.5 12.4 0.0
21/10/17 00:11 12.5 98 12.2 1.4 1.4 45 34.8 0.0 1017.0 1.4 12.5 12.5 0.0
21/10/17 00:10 12.5 98 12.2 1.4 1.4 45 34.8 0.0 1017.0 1.4 12.5 12.5 0.0
21/10/17 00:09 12.5 98 12.2 1.4 1.4 45 34.8 0.0 1017.0 1.4 12.5 12.5 0.0
21/10/17 00:08 12.5 98 12.2 1.4 1.4 45 34.8 0.0 1017.0 1.4 12.5 12.5 0.0
21/10/17 00:07 12.5 98 12.2 1.4 1.4 45 34.8 0.0 1017.0 1.4 12.5 12.5 0.0
21/10/17 00:06 12.5 98 12.2 1.4 1.4 45 34.8 0.0 1017.0 1.4 12.5 12.5 0.0
21/10/17 00:05 12.5 98 12.2 1.4 1.4 45 34.8 0.0 1017.0 1.4 12.5 12.5 0.0
21/10/17 00:04 12.5 98 12.2 1.4 1.4 45 34.8 0.0 1017.0 1.4 12.5 12.5 0.0
21/10/17 00:03 12.6 98 12.3 1.4 1.4 45 34.8 0.0 1017.0 1.4 12.5 12.6 0.0
21/10/17 00:02 12.5 98 12.2 1.4 1.4 45 34.8 0.0 1017.0 1.4 12.5 12.5 0.0
  Back to Top


This site is NOT a professional weather site.
Never base important decisions on this or any weather information obtained from the Internet.
Website Supported by Cumulus. Contact me Admin